sensor_id;sensor_type;location;lat;lon;timestamp;pressure;altitude;pressure_sealevel;temperature;humidity
79678;BME280;69145;45.544;10.214;2023-05-27T00:01:05;100328.66;;;20.78;76.80
79678;BME280;69145;45.544;10.214;2023-05-27T00:03:30;100331.53;;;20.76;77.13
79678;BME280;69145;45.544;10.214;2023-05-27T00:05:56;100338.47;;;20.82;77.31
79678;BME280;69145;45.544;10.214;2023-05-27T00:08:21;100343.94;;;20.81;76.99
79678;BME280;69145;45.544;10.214;2023-05-27T00:10:46;100338.16;;;20.79;77.09
79678;BME280;69145;45.544;10.214;2023-05-27T00:13:13;100338.94;;;20.79;77.83
79678;BME280;69145;45.544;10.214;2023-05-27T00:15:40;100333.09;;;20.77;77.64
79678;BME280;69145;45.544;10.214;2023-05-27T00:18:05;100345.31;;;20.83;77.79
79678;BME280;69145;45.544;10.214;2023-05-27T00:20:31;100341.00;;;20.77;77.95
79678;BME280;69145;45.544;10.214;2023-05-27T00:22:57;100345.81;;;20.80;78.24
79678;BME280;69145;45.544;10.214;2023-05-27T00:25:25;100348.88;;;20.77;78.37
79678;BME280;69145;45.544;10.214;2023-05-27T00:27:50;100353.22;;;20.83;78.66
79678;BME280;69145;45.544;10.214;2023-05-27T00:30:16;100341.78;;;20.78;78.85
79678;BME280;69145;45.544;10.214;2023-05-27T00:32:42;100358.94;;;20.80;78.33
79678;BME280;69145;45.544;10.214;2023-05-27T00:35:08;100356.31;;;20.80;78.69
79678;BME280;69145;45.544;10.214;2023-05-27T00:37:33;100368.75;;;20.85;78.78
79678;BME280;69145;45.544;10.214;2023-05-27T00:39:59;100361.09;;;20.83;79.03
79678;BME280;69145;45.544;10.214;2023-05-27T00:42:25;100367.16;;;20.84;78.74
79678;BME280;69145;45.544;10.214;2023-05-27T00:44:50;100349.94;;;20.76;78.49
79678;BME280;69145;45.544;10.214;2023-05-27T00:47:17;100351.31;;;20.79;78.85
79678;BME280;69145;45.544;10.214;2023-05-27T00:49:43;100362.16;;;20.82;78.90
79678;BME280;69145;45.544;10.214;2023-05-27T00:52:09;100362.16;;;20.82;78.93
79678;BME280;69145;45.544;10.214;2023-05-27T00:54:35;100366.34;;;20.83;79.32
79678;BME280;69145;45.544;10.214;2023-05-27T00:57:00;100344.44;;;20.78;78.81
79678;BME280;69145;45.544;10.214;2023-05-27T00:59:30;100359.03;;;20.85;79.39
79678;BME280;69145;45.544;10.214;2023-05-27T01:01:55;100361.66;;;20.85;79.28
79678;BME280;69145;45.544;10.214;2023-05-27T01:04:21;100358.47;;;20.83;79.08
79678;BME280;69145;45.544;10.214;2023-05-27T01:12:21;100363.16;;;20.81;79.60
79678;BME280;69145;45.544;10.214;2023-05-27T01:14:54;100362.16;;;20.82;80.52
79678;BME280;69145;45.544;10.214;2023-05-27T01:17:23;100363.72;;;20.83;80.10
79678;BME280;69145;45.544;10.214;2023-05-27T01:19:50;100354.72;;;20.79;80.10
79678;BME280;69145;45.544;10.214;2023-05-27T01:24:46;100362.34;;;20.81;79.74
79678;BME280;69145;45.544;10.214;2023-05-27T01:27:12;100363.97;;;20.82;79.87
79678;BME280;69145;45.544;10.214;2023-05-27T01:29:39;100369.00;;;20.83;79.50
79678;BME280;69145;45.544;10.214;2023-05-27T01:35:17;100359.72;;;20.81;80.13
79678;BME280;69145;45.544;10.214;2023-05-27T01:37:45;100360.28;;;20.83;79.83
79678;BME280;69145;45.544;10.214;2023-05-27T01:40:13;100363.72;;;20.83;80.26
79678;BME280;69145;45.544;10.214;2023-05-27T01:42:43;100370.56;;;20.84;80.40
79678;BME280;69145;45.544;10.214;2023-05-27T01:45:11;100367.63;;;20.81;79.58
79678;BME280;69145;45.544;10.214;2023-05-27T01:47:36;100359.19;;;20.79;80.15
79678;BME280;69145;45.544;10.214;2023-05-27T01:50:02;100359.72;;;20.81;80.22
79678;BME280;69145;45.544;10.214;2023-05-27T01:52:31;100370.56;;;20.84;80.41
79678;BME280;69145;45.544;10.214;2023-05-27T01:54:56;100363.72;;;20.83;80.32
79678;BME280;69145;45.544;10.214;2023-05-27T01:57:24;100360.44;;;20.76;79.85
79678;BME280;69145;45.544;10.214;2023-05-27T01:59:50;100374.25;;;20.83;80.01
79678;BME280;69145;45.544;10.214;2023-05-27T02:02:15;100377.69;;;20.84;79.74
79678;BME280;69145;45.544;10.214;2023-05-27T02:04:41;100378.38;;;20.79;80.15
79678;BME280;69145;45.544;10.214;2023-05-27T02:07:06;100375.81;;;20.84;80.00
79678;BME280;69145;45.544;10.214;2023-05-27T02:09:31;100376.63;;;20.85;80.23
79678;BME280;69145;45.544;10.214;2023-05-27T02:11:57;100366.84;;;20.80;80.35
79678;BME280;69145;45.544;10.214;2023-05-27T02:14:22;100382.69;;;20.85;79.97
79678;BME280;69145;45.544;10.214;2023-05-27T02:16:48;100380.31;;;20.84;79.71
79678;BME280;69145;45.544;10.214;2023-05-27T02:19:15;100380.75;;;20.81;80.43
79678;BME280;69145;45.544;10.214;2023-05-27T02:21:40;100388.78;;;20.86;80.62
79678;BME280;69145;45.544;10.214;2023-05-27T02:24:15;100381.00;;;20.79;80.34
79678;BME280;69145;45.544;10.214;2023-05-27T02:26:42;100391.41;;;20.86;80.28
79678;BME280;69145;45.544;10.214;2023-05-27T02:29:08;100382.13;;;20.83;80.18
79678;BME280;69145;45.544;10.214;2023-05-27T02:31:33;100383.63;;;20.79;80.33
79678;BME280;69145;45.544;10.214;2023-05-27T02:33:58;100382.28;;;20.77;79.48
79678;BME280;69145;45.544;10.214;2023-05-27T02:36:24;100386.25;;;20.79;79.64
79678;BME280;69145;45.544;10.214;2023-05-27T02:38:50;100388.22;;;20.84;79.99
79678;BME280;69145;45.544;10.214;2023-05-27T02:41:15;100392.66;;;20.83;79.32
79678;BME280;69145;45.544;10.214;2023-05-27T02:43:41;100385.81;;;20.82;79.36
79678;BME280;69145;45.544;10.214;2023-05-27T02:46:06;100385.00;;;20.82;79.01
79678;BME280;69145;45.544;10.214;2023-05-27T02:48:32;100380.44;;;20.77;77.86
79678;BME280;69145;45.544;10.214;2023-05-27T02:51:02;100385.25;;;20.80;77.17
79678;BME280;69145;45.544;10.214;2023-05-27T02:53:27;100389.69;;;20.80;77.73
79678;BME280;69145;45.544;10.214;2023-05-27T02:55:53;100397.09;;;20.83;78.11
79678;BME280;69145;45.544;10.214;2023-05-27T02:58:18;100393.47;;;20.84;77.72
79678;BME280;69145;45.544;10.214;2023-05-27T03:00:43;100382.63;;;20.80;77.77
79678;BME280;69145;45.544;10.214;2023-05-27T03:03:09;100397.09;;;20.83;77.79
79678;BME280;69145;45.544;10.214;2023-05-27T03:05:35;100394.47;;;20.83;77.51
79678;BME280;69145;45.544;10.214;2023-05-27T03:08:01;100387.31;;;20.78;77.53
79678;BME280;69145;45.544;10.214;2023-05-27T03:10:27;100387.31;;;20.78;77.37
79678;BME280;69145;45.544;10.214;2023-05-27T03:12:55;100388.34;;;20.77;78.30
79678;BME280;69145;45.544;10.214;2023-05-27T03:15:21;100395.53;;;20.82;77.80
79678;BME280;69145;45.544;10.214;2023-05-27T03:17:47;100385.50;;;20.79;77.81
79678;BME280;69145;45.544;10.214;2023-05-27T03:20:12;100383.63;;;20.79;77.88
79678;BME280;69145;45.544;10.214;2023-05-27T03:22:38;100391.06;;;20.82;77.91
79678;BME280;69145;45.544;10.214;2023-05-27T03:25:04;100373.59;;;20.76;77.14
79678;BME280;69145;45.544;10.214;2023-05-27T03:27:30;100396.09;;;20.84;77.90
79678;BME280;69145;45.544;10.214;2023-05-27T03:29:55;100381.41;;;20.71;78.10
79678;BME280;69145;45.544;10.214;2023-05-27T03:32:21;100390.03;;;20.83;77.72
79678;BME280;69145;45.544;10.214;2023-05-27T03:34:47;100380.69;;;20.76;77.70
79678;BME280;69145;45.544;10.214;2023-05-27T03:37:12;100367.19;;;20.72;77.72
79678;BME280;69145;45.544;10.214;2023-05-27T03:39:39;100373.59;;;20.76;78.12
79678;BME280;69145;45.544;10.214;2023-05-27T03:42:05;100366.31;;;20.67;78.14
79678;BME280;69145;45.544;10.214;2023-05-27T03:44:31;100383.88;;;20.78;78.18
79678;BME280;69145;45.544;10.214;2023-05-27T03:46:57;100374.00;;;20.68;78.18
79678;BME280;69145;45.544;10.214;2023-05-27T03:49:30;100373.75;;;20.70;78.65
79678;BME280;69145;45.544;10.214;2023-05-27T03:52:13;100391.06;;;20.82;77.94
79678;BME280;69145;45.544;10.214;2023-05-27T03:54:38;100385.16;;;20.75;77.83
79678;BME280;69145;45.544;10.214;2023-05-27T03:57:04;100397.09;;;20.83;77.53
79678;BME280;69145;45.544;10.214;2023-05-27T03:59:29;100397.91;;;20.83;77.69
79678;BME280;69145;45.544;10.214;2023-05-27T04:01:55;100390.41;;;20.75;77.87
79678;BME280;69145;45.544;10.214;2023-05-27T04:04:20;100389.38;;;20.76;77.76
79678;BME280;69145;45.544;10.214;2023-05-27T04:06:46;100409.50;;;20.82;77.24
79678;BME280;69145;45.544;10.214;2023-05-27T04:09:11;100393.38;;;20.79;76.89
79678;BME280;69145;45.544;10.214;2023-05-27T04:11:37;100401.28;;;20.79;76.78
79678;BME280;69145;45.544;10.214;2023-05-27T04:14:02;100397.50;;;20.75;76.70
79678;BME280;69145;45.544;10.214;2023-05-27T04:16:29;100377.88;;;20.66;76.17
79678;BME280;69145;45.544;10.214;2023-05-27T04:18:56;100405.81;;;20.83;76.28
79678;BME280;69145;45.544;10.214;2023-05-27T04:21:22;100416.31;;;20.83;77.44
79678;BME280;69145;45.544;10.214;2023-05-27T04:23:47;100418.16;;;20.83;77.55
79678;BME280;69145;45.544;10.214;2023-05-27T04:26:13;100424.22;;;20.83;77.57
79678;BME280;69145;45.544;10.214;2023-05-27T04:28:39;100410.19;;;20.78;77.28
79678;BME280;69145;45.544;10.214;2023-05-27T04:31:06;100417.59;;;20.81;77.66
79678;BME280;69145;45.544;10.214;2023-05-27T04:33:39;100425.16;;;20.77;77.17
79678;BME280;69145;45.544;10.214;2023-05-27T04:36:06;100413.84;;;20.77;76.74
79678;BME280;69145;45.544;10.214;2023-05-27T04:38:31;100425.03;;;20.84;76.32
79678;BME280;69145;45.544;10.214;2023-05-27T04:40:57;100414.63;;;20.77;76.14
79678;BME280;69145;45.544;10.214;2023-05-27T04:43:23;100425.72;;;20.79;76.75
79678;BME280;69145;45.544;10.214;2023-05-27T04:45:50;100416.72;;;20.75;76.44
79678;BME280;69145;45.544;10.214;2023-05-27T04:48:15;100415.44;;;20.78;77.71
79678;BME280;69145;45.544;10.214;2023-05-27T04:50:41;100429.47;;;20.83;77.26
79678;BME280;69145;45.544;10.214;2023-05-27T04:53:07;100440.00;;;20.83;77.18
79678;BME280;69145;45.544;10.214;2023-05-27T04:55:33;100438.94;;;20.84;77.56
79678;BME280;69145;45.544;10.214;2023-05-27T04:57:59;100436.22;;;20.79;77.41
79678;BME280;69145;45.544;10.214;2023-05-27T05:00:29;100433.28;;;20.76;77.62
79678;BME280;69145;45.544;10.214;2023-05-27T05:03:13;100450.75;;;20.82;77.19
79678;BME280;69145;45.544;10.214;2023-05-27T05:05:47;100451.78;;;20.81;76.82
79678;BME280;69145;45.544;10.214;2023-05-27T05:08:12;100439.34;;;20.76;76.85
79678;BME280;69145;45.544;10.214;2023-05-27T05:10:38;100458.66;;;20.82;76.55
79678;BME280;69145;45.544;10.214;2023-05-27T05:13:04;100444.38;;;20.78;76.61
79678;BME280;69145;45.544;10.214;2023-05-27T05:15:29;100451.00;;;20.80;76.38
79678;BME280;69145;45.544;10.214;2023-05-27T05:17:56;100445.97;;;20.79;76.90
79678;BME280;69145;45.544;10.214;2023-05-27T05:20:21;100451.00;;;20.80;77.00
79678;BME280;69145;45.544;10.214;2023-05-27T05:22:46;100425.22;;;20.66;76.78
79678;BME280;69145;45.544;10.214;2023-05-27T05:25:12;100460.00;;;20.84;76.30
79678;BME280;69145;45.544;10.214;2023-05-27T05:27:37;100462.88;;;20.83;76.30
79678;BME280;69145;45.544;10.214;2023-05-27T05:30:03;100458.31;;;20.78;76.02
79678;BME280;69145;45.544;10.214;2023-05-27T05:32:29;100467.78;;;20.79;76.30
79678;BME280;69145;45.544;10.214;2023-05-27T05:34:57;100457.75;;;20.76;76.14
79678;BME280;69145;45.544;10.214;2023-05-27T05:37:25;100465.97;;;20.80;76.40
79678;BME280;69145;45.544;10.214;2023-05-27T05:39:51;100474.19;;;20.83;76.81
79678;BME280;69145;45.544;10.214;2023-05-27T05:42:16;100465.16;;;20.79;76.32
79678;BME280;69145;45.544;10.214;2023-05-27T05:44:42;100467.22;;;20.77;76.17
79678;BME280;69145;45.544;10.214;2023-05-27T05:47:07;100470.44;;;20.79;76.46
79678;BME280;69145;45.544;10.214;2023-05-27T05:49:32;100482.88;;;20.84;76.15
79678;BME280;69145;45.544;10.214;2023-05-27T05:51:58;100472.47;;;20.77;76.09
79678;BME280;69145;45.544;10.214;2023-05-27T05:54:23;100481.28;;;20.83;75.86
79678;BME280;69145;45.544;10.214;2023-05-27T05:56:48;100473.28;;;20.78;75.91
79678;BME280;69145;45.544;10.214;2023-05-27T05:59:14;100468.41;;;20.70;75.74
79678;BME280;69145;45.544;10.214;2023-05-27T06:01:39;100476.16;;;20.76;75.20
79678;BME280;69145;45.544;10.214;2023-05-27T06:04:07;100491.00;;;20.82;75.04
79678;BME280;69145;45.544;10.214;2023-05-27T06:06:35;100481.19;;;20.78;74.97
79678;BME280;69145;45.544;10.214;2023-05-27T06:09:00;100475.13;;;20.77;74.82
79678;BME280;69145;45.544;10.214;2023-05-27T06:11:26;100478.06;;;20.81;74.42
79678;BME280;69145;45.544;10.214;2023-05-27T06:13:51;100483.56;;;20.79;74.40
79678;BME280;69145;45.544;10.214;2023-05-27T06:16:26;100469.75;;;20.72;74.49
79678;BME280;69145;45.544;10.214;2023-05-27T06:18:52;100481.50;;;20.81;74.50
79678;BME280;69145;45.544;10.214;2023-05-27T06:21:20;100473.06;;;20.79;74.38
79678;BME280;69145;45.544;10.214;2023-05-27T06:23:45;100483.34;;;20.81;74.57
79678;BME280;69145;45.544;10.214;2023-05-27T06:26:11;100464.50;;;20.72;74.73
79678;BME280;69145;45.544;10.214;2023-05-27T06:28:36;100483.34;;;20.81;74.14
79678;BME280;69145;45.544;10.214;2023-05-27T06:31:01;100475.03;;;20.72;74.16
79678;BME280;69145;45.544;10.214;2023-05-27T06:33:27;100490.44;;;20.80;74.07
79678;BME280;69145;45.544;10.214;2023-05-27T06:35:53;100489.88;;;20.78;73.60
79678;BME280;69145;45.544;10.214;2023-05-27T06:38:18;100481.41;;;20.76;74.26
79678;BME280;69145;45.544;10.214;2023-05-27T06:40:43;100478.69;;;20.71;73.33
79678;BME280;69145;45.544;10.214;2023-05-27T06:43:09;100476.31;;;20.70;72.68
79678;BME280;69145;45.544;10.214;2023-05-27T06:45:35;100475.03;;;20.72;72.84
79678;BME280;69145;45.544;10.214;2023-05-27T06:48:00;100465.06;;;20.74;72.64
79678;BME280;69145;45.544;10.214;2023-05-27T06:50:25;100471.94;;;20.75;72.59
79678;BME280;69145;45.544;10.214;2023-05-27T06:52:51;100467.22;;;20.77;72.46
79678;BME280;69145;45.544;10.214;2023-05-27T06:55:17;100472.47;;;20.77;73.00
79678;BME280;69145;45.544;10.214;2023-05-27T06:57:43;100467.56;;;20.81;72.57
79678;BME280;69145;45.544;10.214;2023-05-27T07:00:08;100469.16;;;20.82;72.48
79678;BME280;69145;45.544;10.214;2023-05-27T07:02:34;100472.03;;;20.80;72.44
79678;BME280;69145;45.544;10.214;2023-05-27T07:04:59;100460.38;;;20.76;72.48
79678;BME280;69145;45.544;10.214;2023-05-27T07:07:25;100464.94;;;20.81;72.85
79678;BME280;69145;45.544;10.214;2023-05-27T07:09:50;100460.94;;;20.78;72.52
79678;BME280;69145;45.544;10.214;2023-05-27T07:12:15;100459.47;;;20.82;72.70
79678;BME280;69145;45.544;10.214;2023-05-27T07:14:41;100463.34;;;20.80;72.33
79678;BME280;69145;45.544;10.214;2023-05-27T07:17:06;100453.06;;;20.78;72.46
79678;BME280;69145;45.544;10.214;2023-05-27T07:19:31;100460.47;;;20.81;72.60
79678;BME280;69145;45.544;10.214;2023-05-27T07:21:57;100443.78;;;20.76;72.62
79678;BME280;69145;45.544;10.214;2023-05-27T07:24:22;100452.25;;;20.78;71.75
79678;BME280;69145;45.544;10.214;2023-05-27T07:26:48;100461.28;;;20.82;72.09
79678;BME280;69145;45.544;10.214;2023-05-27T07:29:13;100458.31;;;20.78;72.13
79678;BME280;69145;45.544;10.214;2023-05-27T07:31:38;100449.28;;;20.74;72.41
79678;BME280;69145;45.544;10.214;2023-05-27T07:34:04;100460.22;;;20.83;72.46
79678;BME280;69145;45.544;10.214;2023-05-27T07:36:29;100457.59;;;20.83;72.35
79678;BME280;69145;45.544;10.214;2023-05-27T07:38:54;100448.13;;;20.82;72.09
79678;BME280;69145;45.544;10.214;2023-05-27T07:41:20;100454.19;;;20.82;72.12
79678;BME280;69145;45.544;10.214;2023-05-27T07:43:46;100443.03;;;20.75;72.29
79678;BME280;69145;45.544;10.214;2023-05-27T07:46:12;100434.00;;;20.71;72.00
79678;BME280;69145;45.544;10.214;2023-05-27T07:48:37;100448.94;;;20.82;71.95
79678;BME280;69145;45.544;10.214;2023-05-27T07:51:02;100446.44;;;20.76;72.65
79678;BME280;69145;45.544;10.214;2023-05-27T07:53:28;100440.94;;;20.77;72.00
79678;BME280;69145;45.544;10.214;2023-05-27T07:55:53;100447.56;;;20.80;71.96
79678;BME280;69145;45.544;10.214;2023-05-27T07:58:19;100437.75;;;20.75;71.56
79678;BME280;69145;45.544;10.214;2023-05-27T08:01:02;100424.97;;;20.67;71.21
79678;BME280;69145;45.544;10.214;2023-05-27T08:03:27;100436.22;;;20.79;71.30
79678;BME280;69145;45.544;10.214;2023-05-27T08:05:53;100428.81;;;20.76;71.71
79678;BME280;69145;45.544;10.214;2023-05-27T08:08:18;100432.03;;;20.78;71.45
79678;BME280;69145;45.544;10.214;2023-05-27T08:10:46;100425.63;;;20.74;71.66
79678;BME280;69145;45.544;10.214;2023-05-27T08:13:12;100433.03;;;20.77;70.98
79678;BME280;69145;45.544;10.214;2023-05-27T08:15:37;100430.41;;;20.77;71.40
79678;BME280;69145;45.544;10.214;2023-05-27T08:18:02;100436.22;;;20.79;71.76
79678;BME280;69145;45.544;10.214;2023-05-27T08:20:28;100429.16;;;20.80;71.51
79678;BME280;69145;45.544;10.214;2023-05-27T08:22:53;100439.66;;;20.80;71.74
79678;BME280;69145;45.544;10.214;2023-05-27T08:25:19;100433.94;;;20.83;72.26
79678;BME280;69145;45.544;10.214;2023-05-27T08:27:52;100423.09;;;20.79;71.58
79678;BME280;69145;45.544;10.214;2023-05-27T08:30:18;100429.47;;;20.83;71.93
79678;BME280;69145;45.544;10.214;2023-05-27T08:32:44;100427.66;;;20.84;72.23
79678;BME280;69145;45.544;10.214;2023-05-27T08:35:10;100425.03;;;20.84;72.62
79678;BME280;69145;45.544;10.214;2023-05-27T08:37:36;100417.59;;;20.81;72.17
79678;BME280;69145;45.544;10.214;2023-05-27T08:40:03;100414.94;;;20.81;72.03
79678;BME280;69145;45.544;10.214;2023-05-27T08:42:32;100417.81;;;20.79;72.19
79678;BME280;69145;45.544;10.214;2023-05-27T08:44:58;100409.16;;;20.79;72.38
79678;BME280;69145;45.544;10.214;2023-05-27T08:47:24;100418.97;;;20.83;72.02
79678;BME280;69145;45.544;10.214;2023-05-27T08:49:51;100410.19;;;20.78;72.00
79678;BME280;69145;45.544;10.214;2023-05-27T08:52:18;100415.28;;;20.84;71.86
79678;BME280;69145;45.544;10.214;2023-05-27T08:54:46;100394.41;;;20.78;71.83
79678;BME280;69145;45.544;10.214;2023-05-27T08:57:12;100399.19;;;20.81;72.14
79678;BME280;69145;45.544;10.214;2023-05-27T08:59:40;100403.19;;;20.83;72.77
79678;BME280;69145;45.544;10.214;2023-05-27T09:02:11;100398.72;;;20.84;71.96
79678;BME280;69145;45.544;10.214;2023-05-27T09:04:38;100403.97;;;20.84;71.90
79678;BME280;69145;45.544;10.214;2023-05-27T09:07:04;100386.50;;;20.78;72.12
79678;BME280;69145;45.544;10.214;2023-05-27T09:09:29;100400.56;;;20.83;72.27
79678;BME280;69145;45.544;10.214;2023-05-27T09:11:59;100400.31;;;20.85;72.26
79678;BME280;69145;45.544;10.214;2023-05-27T09:14:27;100392.56;;;20.78;71.96
79678;BME280;69145;45.544;10.214;2023-05-27T09:16:53;100397.09;;;20.83;72.07
79678;BME280;69145;45.544;10.214;2023-05-27T09:19:19;100393.47;;;20.84;71.44
79678;BME280;69145;45.544;10.214;2023-05-27T09:21:45;100387.88;;;20.80;72.02
79678;BME280;69145;45.544;10.214;2023-05-27T09:24:11;100383.97;;;20.83;72.52
79678;BME280;69145;45.544;10.214;2023-05-27T09:26:37;100374.97;;;20.79;72.13
79678;BME280;69145;45.544;10.214;2023-05-27T09:29:09;100386.34;;;20.84;71.76
79678;BME280;69145;45.544;10.214;2023-05-27T09:31:41;100382.38;;;20.82;71.99
79678;BME280;69145;45.544;10.214;2023-05-27T09:34:13;100377.34;;;20.80;71.65
79678;BME280;69145;45.544;10.214;2023-05-27T09:36:46;100378.47;;;20.84;71.55
79678;BME280;69145;45.544;10.214;2023-05-27T09:39:17;100380.06;;;20.85;71.99
79678;BME280;69145;45.544;10.214;2023-05-27T09:41:43;100375.81;;;20.84;72.58
79678;BME280;69145;45.544;10.214;2023-05-27T09:44:09;100359.97;;;20.79;72.48
79678;BME280;69145;45.544;10.214;2023-05-27T09:46:35;100379.25;;;20.85;72.04
79678;BME280;69145;45.544;10.214;2023-05-27T09:49:02;100373.00;;;20.86;72.02
79678;BME280;69145;45.544;10.214;2023-05-27T09:51:29;100375.06;;;20.84;72.25
79678;BME280;69145;45.544;10.214;2023-05-27T09:53:55;100368.41;;;20.81;71.73
79678;BME280;69145;45.544;10.214;2023-05-27T09:56:29;100363.41;;;20.80;71.73
79678;BME280;69145;45.544;10.214;2023-05-27T09:58:55;100375.06;;;20.84;72.42
79678;BME280;69145;45.544;10.214;2023-05-27T10:01:25;100366.91;;;20.85;71.92
79678;BME280;69145;45.544;10.214;2023-05-27T10:03:51;100355.75;;;20.78;71.84
79678;BME280;69145;45.544;10.214;2023-05-27T10:06:17;100354.25;;;20.82;72.35
79678;BME280;69145;45.544;10.214;2023-05-27T10:08:43;100367.94;;;20.84;72.00
79678;BME280;69145;45.544;10.214;2023-05-27T10:11:12;100354.25;;;20.82;71.73
79678;BME280;69145;45.544;10.214;2023-05-27T10:13:38;100345.56;;;20.82;72.23
79678;BME280;69145;45.544;10.214;2023-05-27T10:16:03;100359.03;;;20.85;72.18
79678;BME280;69145;45.544;10.214;2023-05-27T10:18:30;100344.06;;;20.86;72.42
79678;BME280;69145;45.544;10.214;2023-05-27T10:20:59;100342.44;;;20.85;72.09
79678;BME280;69145;45.544;10.214;2023-05-27T10:23:29;100338.78;;;20.86;72.08
79678;BME280;69145;45.544;10.214;2023-05-27T10:26:04;100342.19;;;20.86;72.16
79678;BME280;69145;45.544;10.214;2023-05-27T10:28:33;100334.31;;;20.86;72.68
79678;BME280;69145;45.544;10.214;2023-05-27T10:31:07;100335.34;;;20.85;72.10
79678;BME280;69145;45.544;10.214;2023-05-27T10:33:41;100332.41;;;20.82;72.42
79678;BME280;69145;45.544;10.214;2023-05-27T10:36:12;100331.13;;;20.84;72.38
79678;BME280;69145;45.544;10.214;2023-05-27T10:38:40;100334.31;;;20.86;72.37
79678;BME280;69145;45.544;10.214;2023-05-27T10:41:06;100328.50;;;20.84;72.53
79678;BME280;69145;45.544;10.214;2023-05-27T10:43:33;100333.53;;;20.86;71.81
79678;BME280;69145;45.544;10.214;2023-05-27T10:48:31;100324.84;;;20.85;72.43
79678;BME280;69145;45.544;10.214;2023-05-27T10:50:58;100311.38;;;20.82;72.53
79678;BME280;69145;45.544;10.214;2023-05-27T10:53:26;100311.22;;;20.88;72.02
79678;BME280;69145;45.544;10.214;2023-05-27T10:55:52;100309.63;;;20.87;72.12
79678;BME280;69145;45.544;10.214;2023-05-27T10:58:19;100308.50;;;20.83;72.50
79678;BME280;69145;45.544;10.214;2023-05-27T11:00:49;100308.81;;;20.87;72.09
79678;BME280;69145;45.544;10.214;2023-05-27T11:03:23;100305.63;;;20.85;72.43
79678;BME280;69145;45.544;10.214;2023-05-27T11:06:02;100304.81;;;20.84;72.12
79678;BME280;69145;45.544;10.214;2023-05-27T11:08:29;100313.50;;;20.85;72.06
79678;BME280;69145;45.544;10.214;2023-05-27T11:11:01;100300.38;;;20.85;72.53
79678;BME280;69145;45.544;10.214;2023-05-27T11:13:41;100306.66;;;20.84;72.75
79678;BME280;69145;45.544;10.214;2023-05-27T11:16:11;100291.13;;;20.82;72.51
79678;BME280;69145;45.544;10.214;2023-05-27T11:18:42;100310.44;;;20.88;72.15
79678;BME280;69145;45.544;10.214;2023-05-27T11:21:09;100293.75;;;20.82;72.54
79678;BME280;69145;45.544;10.214;2023-05-27T11:23:40;100293.03;;;20.87;72.94
79678;BME280;69145;45.544;10.214;2023-05-27T11:26:19;100290.97;;;20.89;72.14
79678;BME280;69145;45.544;10.214;2023-05-27T11:28:56;100294.66;;;20.88;72.15
79678;BME280;69145;45.544;10.214;2023-05-27T11:31:27;100297.28;;;20.88;72.49
79678;BME280;69145;45.544;10.214;2023-05-27T11:33:54;100276.63;;;20.80;72.15
79678;BME280;69145;45.544;10.214;2023-05-27T11:36:20;100285.38;;;20.85;73.09
79678;BME280;69145;45.544;10.214;2023-05-27T11:38:59;100280.13;;;20.85;72.62
79678;BME280;69145;45.544;10.214;2023-05-27T11:41:30;100276.25;;;20.88;72.21
79678;BME280;69145;45.544;10.214;2023-05-27T11:44:14;100276.25;;;20.88;72.86
79678;BME280;69145;45.544;10.214;2023-05-27T11:46:44;100278.63;;;20.89;72.88
79678;BME280;69145;45.544;10.214;2023-05-27T11:49:11;100270.72;;;20.89;72.43
79678;BME280;69145;45.544;10.214;2023-05-27T11:51:38;100269.94;;;20.89;72.67
79678;BME280;69145;45.544;10.214;2023-05-27T11:54:04;100265.47;;;20.89;72.21
79678;BME280;69145;45.544;10.214;2023-05-27T11:56:30;100248.56;;;20.85;72.18
79678;BME280;69145;45.544;10.214;2023-05-27T11:58:56;100241.69;;;20.84;72.27
79678;BME280;69145;45.544;10.214;2023-05-27T12:01:22;100243.78;;;20.82;72.64
79678;BME280;69145;45.544;10.214;2023-05-27T12:03:47;100251.50;;;20.89;72.71
79678;BME280;69145;45.544;10.214;2023-05-27T12:06:13;100256.53;;;20.90;72.58
79678;BME280;69145;45.544;10.214;2023-05-27T12:08:38;100253.34;;;20.88;73.01
79678;BME280;69145;45.544;10.214;2023-05-27T12:11:04;100241.25;;;20.87;72.93
79678;BME280;69145;45.544;10.214;2023-05-27T12:13:30;100257.34;;;20.91;72.67
79678;BME280;69145;45.544;10.214;2023-05-27T12:15:57;100240.69;;;20.85;72.62
79678;BME280;69145;45.544;10.214;2023-05-27T12:18:23;100242.81;;;20.88;73.25
79678;BME280;69145;45.544;10.214;2023-05-27T12:20:48;100251.28;;;20.90;72.46
79678;BME280;69145;45.544;10.214;2023-05-27T12:23:14;100235.34;;;20.80;72.97
79678;BME280;69145;45.544;10.214;2023-05-27T12:25:40;100240.19;;;20.88;73.03
79678;BME280;69145;45.544;10.214;2023-05-27T12:28:09;100237.56;;;20.88;72.36
79678;BME280;69145;45.544;10.214;2023-05-27T12:30:35;100232.28;;;20.88;72.42
79678;BME280;69145;45.544;10.214;2023-05-27T12:33:02;100231.03;;;20.91;72.41
79678;BME280;69145;45.544;10.214;2023-05-27T12:35:29;100229.66;;;20.88;72.77
79678;BME280;69145;45.544;10.214;2023-05-27T12:37:55;100219.38;;;20.87;72.95
79678;BME280;69145;45.544;10.214;2023-05-27T12:40:20;100222.34;;;20.90;72.82
79678;BME280;69145;45.544;10.214;2023-05-27T12:42:46;100205.94;;;20.83;72.41
79678;BME280;69145;45.544;10.214;2023-05-27T12:45:11;100224.97;;;20.90;72.33
79678;BME280;69145;45.544;10.214;2023-05-27T12:47:37;100210.94;;;20.85;72.16
79678;BME280;69145;45.544;10.214;2023-05-27T12:50:03;100224.97;;;20.90;72.69
79678;BME280;69145;45.544;10.214;2023-05-27T12:52:29;100217.31;;;20.89;72.79